createdAt,value
2023-03-17T00:01:37.906Z,11.10
2023-03-17T00:04:04.303Z,10.05
2023-03-17T00:06:31.410Z,10.05
2023-03-17T00:08:58.164Z,12.68
2023-03-17T00:11:25.282Z,11.65
2023-03-17T00:13:51.537Z,9.23
2023-03-17T00:16:20.601Z,11.70
2023-03-17T00:18:47.338Z,11.13
2023-03-17T00:21:14.950Z,13.23
2023-03-17T00:23:41.407Z,28.02
2023-03-17T00:26:07.675Z,19.23
2023-03-17T00:28:34.045Z,18.35
2023-03-17T00:31:01.564Z,11.23
2023-03-17T00:33:28.934Z,12.02
2023-03-17T00:35:56.836Z,15.88
2023-03-17T00:38:24.345Z,13.13
2023-03-17T00:40:51.128Z,13.93
2023-03-17T00:43:18.031Z,13.90
2023-03-17T00:48:14.890Z,12.65
2023-03-17T00:50:42.430Z,13.80
2023-03-17T00:53:16.609Z,21.75
2023-03-17T00:55:44.219Z,15.13
2023-03-17T00:58:30.720Z,16.23
2023-03-17T01:00:57.320Z,12.88
2023-03-17T01:03:23.861Z,15.40
2023-03-17T01:05:51.565Z,14.82
2023-03-17T01:08:18.280Z,15.13
2023-03-17T01:10:44.675Z,13.55
2023-03-17T01:13:12.168Z,15.02
2023-03-17T01:15:41.550Z,12.60
2023-03-17T01:18:10.401Z,15.00
2023-03-17T01:20:36.696Z,12.73
2023-03-17T01:23:03.972Z,13.05
2023-03-17T01:25:30.596Z,15.73
2023-03-17T01:28:00.346Z,15.45
2023-03-17T01:30:28.903Z,11.38
2023-03-17T01:32:56.035Z,12.43
2023-03-17T01:37:49.957Z,22.48
2023-03-17T01:40:20.483Z,18.08
2023-03-17T01:43:05.566Z,18.98
2023-03-17T01:45:51.621Z,15.45
2023-03-17T01:48:18.517Z,12.73
2023-03-17T01:50:45.901Z,14.23
2023-03-17T01:53:13.541Z,13.27
2023-03-17T01:55:41.012Z,13.55
2023-03-17T01:58:07.279Z,17.80
2023-03-17T02:00:34.121Z,11.57
2023-03-17T02:03:00.393Z,15.30
2023-03-17T02:05:28.424Z,22.77
2023-03-17T02:07:55.476Z,17.48
2023-03-17T02:10:23.080Z,17.42
2023-03-17T02:12:55.304Z,13.20
2023-03-17T02:15:21.799Z,12.75
2023-03-17T02:17:48.514Z,12.20
2023-03-17T02:20:17.641Z,11.02
2023-03-17T02:22:52.431Z,11.52
2023-03-17T02:25:20.362Z,12.23
2023-03-17T02:27:49.317Z,11.30
2023-03-17T02:30:16.780Z,11.75
2023-03-17T02:32:43.391Z,11.75
2023-03-17T02:35:09.680Z,12.93
2023-03-17T02:37:35.948Z,11.32
2023-03-17T02:40:02.633Z,12.30
2023-03-17T02:42:28.917Z,15.23
2023-03-17T02:44:55.291Z,11.80
2023-03-17T02:47:22.044Z,13.75
2023-03-17T02:49:48.799Z,13.60
2023-03-17T02:52:15.099Z,24.77
2023-03-17T02:54:41.411Z,14.70
2023-03-17T02:57:08.425Z,12.93
2023-03-17T03:02:01.144Z,12.90
2023-03-17T03:04:27.712Z,9.90
2023-03-17T03:06:54.089Z,9.13
2023-03-17T03:09:20.837Z,14.93
2023-03-17T03:11:47.344Z,9.38
2023-03-17T03:14:13.776Z,12.73
2023-03-17T03:16:40.186Z,9.82
2023-03-17T03:19:07.681Z,12.20
2023-03-17T03:21:33.924Z,10.38
2023-03-17T03:24:00.268Z,9.57
2023-03-17T03:26:27.190Z,14.25
2023-03-17T03:31:20.157Z,15.38
2023-03-17T03:33:46.423Z,20.55
2023-03-17T03:36:13.400Z,13.63
2023-03-17T03:38:39.665Z,14.27
2023-03-17T03:41:06.304Z,16.60
2023-03-17T03:43:32.600Z,16.33
2023-03-17T03:45:58.923Z,11.50
2023-03-17T03:48:25.381Z,11.63
2023-03-17T03:50:55.341Z,13.20
2023-03-17T03:53:21.559Z,13.38
2023-03-17T03:55:47.799Z,15.27
2023-03-17T03:58:14.052Z,59.15
2023-03-17T04:00:40.579Z,165.25
2023-03-17T04:03:07.445Z,147.90
2023-03-17T04:05:33.920Z,91.07
2023-03-17T04:08:00.500Z,104.25
2023-03-17T04:10:26.739Z,58.00
2023-03-17T04:12:53.012Z,37.67
2023-03-17T04:15:20.396Z,99.53
2023-03-17T04:17:47.395Z,77.22
2023-03-17T04:22:41.748Z,19.45
2023-03-17T04:25:08.590Z,17.60
2023-03-17T04:27:34.867Z,15.85
2023-03-17T04:30:01.721Z,18.20
2023-03-17T04:32:28.057Z,15.30
2023-03-17T04:34:54.300Z,20.15
2023-03-17T04:37:20.564Z,22.40
2023-03-17T04:39:47.311Z,20.88
2023-03-17T04:42:13.725Z,18.13
2023-03-17T04:44:39.997Z,16.55
2023-03-17T04:47:06.343Z,13.55
2023-03-17T04:49:32.557Z,14.07
2023-03-17T04:51:58.789Z,11.60
2023-03-17T04:54:25.233Z,10.65
2023-03-17T04:56:52.142Z,12.05
2023-03-17T05:01:44.578Z,14.32
2023-03-17T05:04:12.782Z,14.82
2023-03-17T05:06:43.085Z,10.40
2023-03-17T05:09:09.619Z,14.70
2023-03-17T05:11:36.275Z,10.63
2023-03-17T05:14:02.538Z,12.43
2023-03-17T05:16:28.880Z,18.77
2023-03-17T05:18:55.318Z,23.80
2023-03-17T05:21:21.883Z,23.23
2023-03-17T05:23:48.324Z,24.13
2023-03-17T05:26:14.581Z,27.52
2023-03-17T05:28:40.892Z,24.58
2023-03-17T05:31:09.536Z,25.83
2023-03-17T05:33:37.130Z,29.83
2023-03-17T05:36:03.568Z,20.30
2023-03-17T05:38:30.081Z,14.50
2023-03-17T05:40:56.332Z,123.47
2023-03-17T05:43:22.615Z,33.92
2023-03-17T05:45:50.502Z,13.77
2023-03-17T05:48:17.111Z,14.68
2023-03-17T05:50:43.499Z,14.23
2023-03-17T05:53:10.503Z,14.02
2023-03-17T05:55:36.917Z,17.77
2023-03-17T05:58:05.015Z,18.33
2023-03-17T06:00:31.695Z,18.20
2023-03-17T06:02:58.281Z,16.67
2023-03-17T06:05:24.739Z,16.35
2023-03-17T06:07:56.102Z,13.65
2023-03-17T06:10:23.064Z,17.45
2023-03-17T06:12:49.301Z,12.57
2023-03-17T06:15:16.918Z,18.75
2023-03-17T06:17:43.298Z,13.35
2023-03-17T06:20:09.832Z,15.13
2023-03-17T06:22:37.278Z,19.23
2023-03-17T06:25:04.308Z,19.92
2023-03-17T06:27:30.745Z,15.70
2023-03-17T06:29:57.438Z,13.85
2023-03-17T06:32:23.727Z,13.10
2023-03-17T06:34:49.987Z,16.77
2023-03-17T06:37:16.494Z,94.40
2023-03-17T06:39:42.976Z,56.15
2023-03-17T06:42:09.448Z,65.43
2023-03-17T06:44:37.077Z,32.72
2023-03-17T06:47:03.368Z,278.30
2023-03-17T06:49:29.638Z,166.27
2023-03-17T06:51:56.314Z,61.92
2023-03-17T06:54:25.252Z,54.95
2023-03-17T06:56:52.420Z,39.67
2023-03-17T06:59:19.102Z,72.00
2023-03-17T07:01:46.363Z,92.85
2023-03-17T07:04:12.697Z,52.75
2023-03-17T07:06:39.157Z,47.28
2023-03-17T07:09:07.366Z,45.92
2023-03-17T07:11:33.673Z,32.97
2023-03-17T07:14:00.210Z,25.02
2023-03-17T07:16:27.358Z,19.92
2023-03-17T07:18:54.018Z,19.75
2023-03-17T07:21:20.471Z,16.50
2023-03-17T07:23:46.751Z,15.88
2023-03-17T07:26:13.196Z,18.58
2023-03-17T07:28:40.271Z,23.23
2023-03-17T07:31:08.880Z,18.35
2023-03-17T07:33:35.574Z,20.20
2023-03-17T07:36:02.063Z,14.68
2023-03-17T07:38:28.387Z,19.10
2023-03-17T07:40:55.052Z,24.92
2023-03-17T07:43:21.597Z,17.60
2023-03-17T07:45:47.987Z,16.40
2023-03-17T07:48:14.603Z,19.20
2023-03-17T07:50:42.264Z,13.55
2023-03-17T07:53:08.907Z,15.32
2023-03-17T07:55:36.874Z,12.75
2023-03-17T07:58:03.399Z,10.18
2023-03-17T08:00:30.848Z,12.85
2023-03-17T08:03:09.498Z,12.23
2023-03-17T08:05:36.889Z,9.85
2023-03-17T08:08:03.131Z,11.23
2023-03-17T08:10:29.906Z,10.88
2023-03-17T08:15:22.642Z,26.05
2023-03-17T08:17:48.935Z,6.78
2023-03-17T08:20:15.180Z,8.85
2023-03-17T08:22:42.318Z,14.40
2023-03-17T08:25:09.614Z,11.82
2023-03-17T08:27:36.202Z,9.10
2023-03-17T08:30:02.613Z,9.82
2023-03-17T08:32:28.845Z,6.25
2023-03-17T08:34:55.457Z,11.73
2023-03-17T08:37:22.670Z,14.90
2023-03-17T08:39:49.158Z,10.32
2023-03-17T08:42:15.530Z,7.53
2023-03-17T08:44:43.996Z,6.97
2023-03-17T08:47:10.396Z,7.35
2023-03-17T08:49:36.709Z,10.77
2023-03-17T08:52:03.408Z,8.93
2023-03-17T08:54:29.656Z,10.05
2023-03-17T08:56:55.874Z,8.93
2023-03-17T08:59:22.150Z,15.13
2023-03-17T09:01:48.651Z,16.08
2023-03-17T09:04:15.347Z,7.90
2023-03-17T09:06:51.848Z,6.38
2023-03-17T09:09:28.283Z,13.18
2023-03-17T09:11:54.523Z,10.38
2023-03-17T09:14:20.759Z,15.40
2023-03-17T09:16:48.812Z,8.85
2023-03-17T09:19:16.520Z,9.15
2023-03-17T09:21:42.755Z,13.25
2023-03-17T09:24:09.953Z,7.40
2023-03-17T09:26:36.474Z,8.70
2023-03-17T09:29:04.631Z,6.53
2023-03-17T09:31:31.673Z,7.38
2023-03-17T09:36:24.515Z,10.27
2023-03-17T09:38:51.136Z,8.82
2023-03-17T09:41:25.471Z,6.15
2023-03-17T09:44:11.237Z,7.15
2023-03-17T09:47:02.559Z,6.97
2023-03-17T09:49:35.743Z,9.65
2023-03-17T09:52:02.452Z,7.18
2023-03-17T09:54:34.047Z,5.30
2023-03-17T09:57:06.086Z,6.05
2023-03-17T09:59:33.958Z,9.90
2023-03-17T10:02:01.574Z,7.40
2023-03-17T10:04:28.174Z,7.80
2023-03-17T10:07:00.931Z,8.27
2023-03-17T10:09:35.609Z,8.00
2023-03-17T10:12:10.819Z,18.90
2023-03-17T10:14:51.221Z,7.20
2023-03-17T10:17:19.562Z,7.47
2023-03-17T10:19:55.070Z,9.70
2023-03-17T10:22:25.125Z,10.60
2023-03-17T10:24:52.942Z,12.82
2023-03-17T10:27:19.539Z,7.55
2023-03-17T10:29:48.547Z,8.23
2023-03-17T10:32:15.871Z,8.00
2023-03-17T10:34:42.369Z,8.32
2023-03-17T10:37:12.169Z,6.57
2023-03-17T10:39:44.691Z,7.30
2023-03-17T10:42:12.470Z,6.65
2023-03-17T10:44:42.037Z,7.38
2023-03-17T10:47:20.323Z,7.95
2023-03-17T10:49:46.951Z,6.63
2023-03-17T10:52:19.221Z,6.07
2023-03-17T10:54:51.259Z,12.00
2023-03-17T10:57:18.321Z,8.32
2023-03-17T10:59:49.240Z,6.70
2023-03-17T11:02:30.362Z,12.93
2023-03-17T11:05:05.325Z,8.40
2023-03-17T11:07:50.280Z,7.35
2023-03-17T11:10:21.539Z,8.07
2023-03-17T11:12:50.090Z,8.27
2023-03-17T11:15:17.911Z,10.75
2023-03-17T11:17:53.116Z,9.45
2023-03-17T11:20:24.501Z,7.72
2023-03-17T11:22:58.360Z,9.65
2023-03-17T11:25:26.040Z,8.57
2023-03-17T11:28:04.118Z,11.55
2023-03-17T11:30:34.498Z,11.00
2023-03-17T11:33:14.520Z,8.68
2023-03-17T11:35:45.976Z,7.55
2023-03-17T11:38:21.457Z,7.28
2023-03-17T11:40:47.689Z,8.63
2023-03-17T11:43:13.909Z,11.38
2023-03-17T11:45:40.363Z,10.52
2023-03-17T11:48:29.958Z,7.22
2023-03-17T11:50:59.426Z,7.70
2023-03-17T11:53:40.562Z,7.80
2023-03-17T11:56:10.717Z,12.38
2023-03-17T11:58:42.397Z,11.57
2023-03-17T12:01:12.063Z,11.35
2023-03-17T12:03:42.408Z,6.40
2023-03-17T12:06:28.070Z,11.60
2023-03-17T12:08:54.285Z,11.40
2023-03-17T12:11:23.498Z,10.35
2023-03-17T12:13:53.692Z,11.80
2023-03-17T12:16:26.259Z,12.18
2023-03-17T12:19:01.767Z,12.13
2023-03-17T12:21:47.515Z,16.25
2023-03-17T12:24:17.179Z,9.00
2023-03-17T12:27:01.780Z,10.13
2023-03-17T12:29:33.985Z,14.85
2023-03-17T12:32:05.641Z,9.70
2023-03-17T12:34:39.213Z,10.77
2023-03-17T12:37:05.587Z,12.30
2023-03-17T12:39:36.066Z,11.10
2023-03-17T12:42:22.570Z,12.40
2023-03-17T12:45:07.872Z,10.23
2023-03-17T12:47:43.220Z,8.80
2023-03-17T12:50:19.650Z,16.00
2023-03-17T12:52:58.158Z,14.75
2023-03-17T12:55:26.804Z,11.18
2023-03-17T12:57:59.495Z,17.25
2023-03-17T13:00:33.261Z,7.63
2023-03-17T13:03:18.129Z,8.43
2023-03-17T13:05:49.877Z,14.45
2023-03-17T13:08:24.099Z,18.85
2023-03-17T13:10:51.111Z,15.30
2023-03-17T13:13:23.336Z,13.07
2023-03-17T13:15:52.161Z,9.25
2023-03-17T13:18:18.457Z,9.38
2023-03-17T13:20:44.740Z,13.93
2023-03-17T13:23:11.128Z,9.90
2023-03-17T13:25:41.703Z,22.63
2023-03-17T13:28:11.630Z,7.82
2023-03-17T13:30:38.136Z,10.02
2023-03-17T13:33:11.008Z,35.88
2023-03-17T13:35:46.764Z,7.03
2023-03-17T13:38:31.807Z,6.30
2023-03-17T13:41:01.224Z,9.52
2023-03-17T13:43:27.821Z,6.57
2023-03-17T13:45:55.937Z,7.78
2023-03-17T13:48:36.235Z,7.72
2023-03-17T13:51:08.862Z,6.40
2023-03-17T13:53:36.657Z,10.02
2023-03-17T13:56:05.260Z,8.73
2023-03-17T13:58:33.145Z,7.50
2023-03-17T14:01:04.157Z,7.68
2023-03-17T14:03:30.463Z,8.57
2023-03-17T14:05:57.384Z,8.73
2023-03-17T14:10:57.384Z,7.05
2023-03-17T14:13:25.772Z,10.00
2023-03-17T14:16:04.522Z,7.88
2023-03-17T14:18:30.772Z,7.65
2023-03-17T14:20:58.298Z,11.43
2023-03-17T14:23:25.214Z,10.30
2023-03-17T14:28:19.168Z,8.65
2023-03-17T14:30:52.176Z,7.03
2023-03-17T14:33:20.556Z,9.10
2023-03-17T14:35:49.513Z,18.10
2023-03-17T14:38:23.699Z,8.30
2023-03-17T14:40:50.686Z,8.55
2023-03-17T14:43:17.369Z,4.68
2023-03-17T14:45:54.279Z,7.97
2023-03-17T14:48:26.201Z,12.23
2023-03-17T14:50:56.396Z,23.60
2023-03-17T14:53:24.134Z,10.07
2023-03-17T14:55:51.884Z,9.02
2023-03-17T14:58:23.482Z,7.35
2023-03-17T15:00:58.201Z,6.10
2023-03-17T15:03:27.887Z,16.38
2023-03-17T15:06:03.371Z,15.15
2023-03-17T15:08:30.667Z,9.70
2023-03-17T15:11:01.215Z,8.18
2023-03-17T15:13:28.202Z,8.80
2023-03-17T15:18:23.407Z,9.80
2023-03-17T15:20:49.946Z,9.07
2023-03-17T15:23:20.827Z,9.77
2023-03-17T15:25:56.967Z,8.93
2023-03-17T15:28:25.093Z,10.75
2023-03-17T15:30:52.884Z,7.88
2023-03-17T15:33:30.509Z,14.05
2023-03-17T15:35:56.874Z,15.35
2023-03-17T15:38:23.358Z,13.80
2023-03-17T15:40:50.119Z,10.70
2023-03-17T15:43:17.677Z,7.72
2023-03-17T15:45:45.095Z,8.27
2023-03-17T15:48:16.995Z,7.03
2023-03-17T15:50:43.693Z,13.85
2023-03-17T15:53:11.966Z,11.10
2023-03-17T15:55:38.236Z,11.95
2023-03-17T15:58:04.470Z,11.38
2023-03-17T16:00:31.643Z,11.60
2023-03-17T16:02:59.996Z,11.30
2023-03-17T16:05:28.046Z,91.70
2023-03-17T16:07:54.739Z,70.38
2023-03-17T16:10:25.523Z,76.70
2023-03-17T16:12:51.764Z,51.50
2023-03-17T16:15:23.085Z,62.78
2023-03-17T16:17:51.484Z,73.78
2023-03-17T16:20:20.358Z,36.35
2023-03-17T16:22:46.721Z,23.58
2023-03-17T16:25:26.701Z,24.83
2023-03-17T16:27:54.211Z,25.75
2023-03-17T16:30:22.137Z,22.17
2023-03-17T16:32:48.790Z,16.67
2023-03-17T16:35:16.533Z,18.23
2023-03-17T16:37:43.123Z,26.15
2023-03-17T16:40:19.552Z,18.40
2023-03-17T16:42:46.602Z,19.30
2023-03-17T16:45:26.979Z,20.73
2023-03-17T16:47:53.385Z,15.27
2023-03-17T16:50:21.659Z,15.25
2023-03-17T16:52:48.495Z,14.98
2023-03-17T16:55:15.392Z,15.65
2023-03-17T17:00:08.752Z,18.30
2023-03-17T17:02:35.202Z,17.33
2023-03-17T17:05:02.704Z,16.98
2023-03-17T17:07:28.997Z,12.30
2023-03-17T17:09:55.248Z,15.07
2023-03-17T17:12:21.499Z,20.35
2023-03-17T17:14:47.722Z,28.30
2023-03-17T17:17:13.997Z,23.40
2023-03-17T17:19:40.448Z,17.17
2023-03-17T17:22:06.767Z,27.60
2023-03-17T17:24:33.017Z,26.40
2023-03-17T17:26:59.250Z,20.52
2023-03-17T17:29:25.505Z,25.17
2023-03-17T17:31:51.837Z,21.33
2023-03-17T17:34:18.131Z,20.65
2023-03-17T17:36:44.372Z,28.13
2023-03-17T17:39:11.108Z,50.00
2023-03-17T17:41:37.421Z,17.98
2023-03-17T17:44:03.690Z,19.80
2023-03-17T17:46:29.998Z,15.70
2023-03-17T17:48:56.376Z,13.65
2023-03-17T17:51:22.663Z,20.02
2023-03-17T17:53:48.911Z,21.40
2023-03-17T17:56:15.932Z,14.40
2023-03-17T17:58:42.584Z,17.92
2023-03-17T18:01:09.493Z,21.13
2023-03-17T18:06:02.445Z,17.77
2023-03-17T18:08:28.948Z,22.48
2023-03-17T18:10:56.585Z,20.00
2023-03-17T18:13:23.421Z,18.63
2023-03-17T18:15:49.710Z,20.52
2023-03-17T18:18:15.975Z,19.35
2023-03-17T18:20:42.290Z,23.15
2023-03-17T18:23:08.617Z,18.48
2023-03-17T18:25:34.969Z,17.10
2023-03-17T18:28:01.457Z,19.25
2023-03-17T18:30:28.868Z,15.93
2023-03-17T18:32:58.849Z,17.90
2023-03-17T18:35:27.137Z,13.60
2023-03-17T18:37:53.765Z,23.00
2023-03-17T18:40:20.557Z,17.95
2023-03-17T18:42:46.930Z,19.60
2023-03-17T18:45:13.545Z,21.45
2023-03-17T18:47:41.874Z,21.95
2023-03-17T18:50:10.696Z,17.98
2023-03-17T18:52:38.327Z,18.75
2023-03-17T18:55:05.443Z,14.50
2023-03-17T18:57:32.140Z,18.92
2023-03-17T18:59:58.432Z,18.00
2023-03-17T19:02:25.060Z,16.50
2023-03-17T19:04:51.395Z,21.15
2023-03-17T19:07:17.939Z,14.65
2023-03-17T19:09:44.598Z,19.35
2023-03-17T19:12:10.855Z,18.58
2023-03-17T19:14:38.515Z,14.82
2023-03-17T19:17:05.385Z,23.58
2023-03-17T19:19:33.170Z,31.20
2023-03-17T19:21:59.754Z,22.77
2023-03-17T19:24:26.282Z,19.05
2023-03-17T19:26:52.548Z,22.42
2023-03-17T19:29:18.777Z,20.20
2023-03-17T19:31:47.330Z,18.45
2023-03-17T19:34:15.310Z,15.00
2023-03-17T19:39:08.946Z,12.73
2023-03-17T19:41:35.213Z,13.23
2023-03-17T19:44:01.781Z,9.55
2023-03-17T19:46:28.555Z,18.70
2023-03-17T19:48:56.594Z,11.95
2023-03-17T19:51:23.610Z,12.73
2023-03-17T19:56:16.026Z,16.60
2023-03-17T19:58:42.319Z,11.35
2023-03-17T20:01:08.640Z,18.83
2023-03-17T20:03:35.494Z,17.27
2023-03-17T20:06:05.940Z,13.75
2023-03-17T20:08:33.496Z,12.55
2023-03-17T20:10:59.830Z,13.32
2023-03-17T20:13:26.092Z,17.50
2023-03-17T20:15:52.903Z,19.30
2023-03-17T20:20:49.444Z,16.48
2023-03-17T20:23:16.834Z,14.90
2023-03-17T20:25:43.206Z,16.70
2023-03-17T20:28:10.745Z,20.48
2023-03-17T20:30:39.808Z,14.82
2023-03-17T20:33:07.809Z,14.52
2023-03-17T20:35:34.722Z,16.77
2023-03-17T20:40:27.505Z,16.10
2023-03-17T20:42:53.750Z,19.13
2023-03-17T20:45:21.160Z,20.23
2023-03-17T20:47:47.941Z,21.92
2023-03-17T20:50:14.761Z,16.77
2023-03-17T20:52:41.842Z,16.63
2023-03-17T20:55:09.182Z,15.57
2023-03-17T20:57:36.094Z,13.93
2023-03-17T21:02:29.334Z,22.17
2023-03-17T21:04:55.653Z,11.35
2023-03-17T21:07:22.236Z,14.00
2023-03-17T21:09:48.680Z,12.13
2023-03-17T21:12:16.105Z,9.75
2023-03-17T21:14:42.836Z,14.50
2023-03-17T21:17:09.650Z,11.40
2023-03-17T21:19:36.881Z,15.05
2023-03-17T21:22:03.728Z,8.38
2023-03-17T21:24:31.872Z,14.23
2023-03-17T21:26:59.589Z,19.70
2023-03-17T21:29:26.185Z,11.50
2023-03-17T21:31:52.646Z,19.13
2023-03-17T21:34:18.955Z,18.38
2023-03-17T21:36:45.217Z,14.00
2023-03-17T21:39:11.519Z,17.00
2023-03-17T21:41:39.042Z,11.27
2023-03-17T21:44:06.290Z,17.55
2023-03-17T21:46:33.533Z,15.70
2023-03-17T21:49:00.457Z,12.68
2023-03-17T21:53:53.916Z,14.00
2023-03-17T21:56:20.716Z,11.55
2023-03-17T21:58:48.786Z,20.33
2023-03-17T22:01:15.689Z,18.38
2023-03-17T22:06:09.108Z,17.98
2023-03-17T22:08:35.512Z,17.05
2023-03-17T22:11:06.644Z,12.90
2023-03-17T22:13:32.880Z,11.18
2023-03-17T22:15:59.497Z,12.50
2023-03-17T22:18:25.843Z,17.25
2023-03-17T22:20:56.205Z,16.48
2023-03-17T22:23:22.476Z,10.55
2023-03-17T22:25:48.919Z,13.18
2023-03-17T22:28:15.579Z,14.80
2023-03-17T22:30:42.137Z,10.02
2023-03-17T22:33:08.483Z,10.13
2023-03-17T22:35:34.971Z,16.35
2023-03-17T22:38:01.500Z,12.82
2023-03-17T22:40:27.947Z,14.85
2023-03-17T22:42:58.046Z,11.93
2023-03-17T22:45:24.958Z,14.73
2023-03-17T22:50:17.642Z,16.75
2023-03-17T22:52:44.111Z,13.77
2023-03-17T22:55:10.643Z,14.10
2023-03-17T22:57:37.135Z,12.23
2023-03-17T23:00:14.821Z,24.42
2023-03-17T23:02:41.128Z,10.98
2023-03-17T23:05:08.431Z,10.77
2023-03-17T23:07:47.861Z,11.50
2023-03-17T23:10:17.426Z,14.27
2023-03-17T23:12:44.026Z,9.70
2023-03-17T23:15:10.670Z,13.68
2023-03-17T23:17:36.952Z,14.07
2023-03-17T23:20:05.405Z,9.98
2023-03-17T23:22:32.086Z,14.40
2023-03-17T23:24:58.332Z,15.70
2023-03-17T23:27:24.561Z,10.55
2023-03-17T23:29:51.368Z,10.75
2023-03-17T23:32:18.075Z,10.70
2023-03-17T23:34:44.658Z,12.80
2023-03-17T23:37:10.959Z,19.10
2023-03-17T23:39:37.259Z,12.32
2023-03-17T23:42:04.018Z,15.30
2023-03-17T23:44:30.797Z,11.40
2023-03-17T23:46:57.072Z,12.40
2023-03-17T23:49:23.963Z,17.55
2023-03-17T23:54:16.510Z,14.80
2023-03-17T23:56:42.763Z,17.20
2023-03-17T23:59:09.646Z,10.82
